createdAt,value
2019-04-04T00:04:01.157Z,3.2
2019-04-04T00:14:01.292Z,3.1
2019-04-04T00:24:01.337Z,3.0
2019-04-04T00:34:01.308Z,2.9
2019-04-04T00:49:04.473Z,2.9
2019-04-04T00:59:01.312Z,3.0
2019-04-04T01:04:01.341Z,2.9
2019-04-04T01:19:01.218Z,2.9
2019-04-04T01:29:01.164Z,3.0
2019-04-04T01:34:01.450Z,3.2
2019-04-04T01:39:01.164Z,3.3
2019-04-04T01:54:01.715Z,3.2
2019-04-04T02:09:02.761Z,3.2
2019-04-04T02:19:01.221Z,3.1
2019-04-04T02:34:05.060Z,3.1
2019-04-04T02:49:01.196Z,3.1
2019-04-04T03:00:02.322Z,3.1
2019-04-04T03:10:01.363Z,3.2
2019-04-04T03:15:01.189Z,3.2
2019-04-04T03:30:01.279Z,3.2
2019-04-04T03:45:01.177Z,3.1
2019-04-04T03:55:01.168Z,3.2
2019-04-04T04:00:05.493Z,3.1
2019-04-04T04:15:01.164Z,3.1
2019-04-04T04:30:07.533Z,3.1
2019-04-04T04:36:01.214Z,3.2
2019-04-04T04:51:01.234Z,3.2
2019-04-04T04:56:01.295Z,3.3
2019-04-04T05:11:01.284Z,3.3
2019-04-04T05:26:03.044Z,3.2
2019-04-04T05:41:02.237Z,3.2
2019-04-04T05:56:01.303Z,3.2
2019-04-04T06:01:01.852Z,3.3
2019-04-04T06:11:01.199Z,3.2
2019-04-04T06:16:01.984Z,3.3
2019-04-04T06:31:01.222Z,3.2
2019-04-04T06:36:01.265Z,3.3
2019-04-04T06:47:02.042Z,3.4
2019-04-04T06:52:01.165Z,3.5
2019-04-04T06:57:01.556Z,3.6
2019-04-04T07:07:01.213Z,3.5
2019-04-04T07:22:01.228Z,3.6
2019-04-04T07:37:01.723Z,3.6
2019-04-04T07:43:01.206Z,3.5
2019-04-04T07:53:03.862Z,3.4
2019-04-04T07:58:01.138Z,3.3
2019-04-04T08:03:01.152Z,3.2
2019-04-04T08:08:01.125Z,3.1
2019-04-04T08:13:01.278Z,3.0
2019-04-04T08:18:02.165Z,2.9
2019-04-04T08:23:01.234Z,2.8
2019-04-04T08:28:01.149Z,2.7
2019-04-04T08:38:01.192Z,2.6
2019-04-04T08:43:01.275Z,2.5
2019-04-04T08:58:01.251Z,2.4
2019-04-04T09:13:01.156Z,2.4
2019-04-04T09:23:01.195Z,2.6
2019-04-04T09:28:01.230Z,2.9
2019-04-04T09:33:01.239Z,3.2
2019-04-04T09:38:01.222Z,3.5
2019-04-04T09:43:01.319Z,4.7
2019-04-04T09:48:01.177Z,5.7
2019-04-04T09:53:01.262Z,6.5
2019-04-04T09:58:01.244Z,7.2
2019-04-04T10:03:01.266Z,8.1
2019-04-04T10:08:01.158Z,8.3
2019-04-04T10:13:01.233Z,10.7
2019-04-04T10:18:01.165Z,13.4
2019-04-04T10:24:01.316Z,18.7
2019-04-04T10:29:01.118Z,23.5
2019-04-04T10:34:01.281Z,29.0
2019-04-04T10:39:01.198Z,32.2
2019-04-04T10:44:01.197Z,35.8
2019-04-04T10:49:01.165Z,37.1
2019-04-04T10:54:01.285Z,38.2
2019-04-04T11:04:01.506Z,38.9
2019-04-04T11:09:01.209Z,39.2
2019-04-04T11:14:01.261Z,39.3
2019-04-04T11:19:01.991Z,39.7
2019-04-04T11:24:01.190Z,41.2
2019-04-04T11:29:01.160Z,42.7
2019-04-04T11:34:01.320Z,44.5
2019-04-04T11:39:01.158Z,46.2
2019-04-04T11:44:01.267Z,48.4
2019-04-04T11:49:01.170Z,49.4
2019-04-04T11:54:01.455Z,49.0
2019-04-04T11:59:01.187Z,47.9
2019-04-04T12:04:01.142Z,46.7
2019-04-04T12:09:06.236Z,46.2
2019-04-04T12:14:01.194Z,45.7
2019-04-04T12:19:01.128Z,46.1
2019-04-04T12:24:01.354Z,46.6
2019-04-04T12:29:01.217Z,48.1
2019-04-04T12:34:02.156Z,49.6
2019-04-04T12:39:01.182Z,50.2
2019-04-04T12:44:01.182Z,50.5
2019-04-04T12:49:01.119Z,52.3
2019-04-04T12:54:01.221Z,52.4
2019-04-04T12:59:01.184Z,52.6
2019-04-04T13:04:01.158Z,53.6
2019-04-04T13:09:01.186Z,54.6
2019-04-04T13:14:01.231Z,54.3
2019-04-04T13:19:01.162Z,55.1
2019-04-04T13:24:01.163Z,54.9
2019-04-04T13:29:01.159Z,55.3
2019-04-04T13:34:01.216Z,55.2
2019-04-04T13:39:01.149Z,56.1
2019-04-04T13:44:01.246Z,56.3
2019-04-04T13:54:01.218Z,56.5
2019-04-04T13:59:02.533Z,57.1
2019-04-04T14:04:01.288Z,56.3
2019-04-04T14:09:01.159Z,56.2
2019-04-04T14:14:02.178Z,55.6
2019-04-04T14:19:01.167Z,55.3
2019-04-04T14:24:12.305Z,54.9
2019-04-04T14:29:03.571Z,56.0
2019-04-04T14:34:01.448Z,57.0
2019-04-04T14:39:01.184Z,57.5
2019-04-04T14:44:01.250Z,57.4
2019-04-04T14:49:01.222Z,57.8
2019-04-04T14:54:01.345Z,57.2
2019-04-04T14:59:01.158Z,56.6
2019-04-04T15:04:01.187Z,56.9
2019-04-04T15:09:01.226Z,57.0
2019-04-04T15:14:01.277Z,58.0
2019-04-04T15:24:01.174Z,59.4
2019-04-04T15:29:02.163Z,59.5
2019-04-04T15:34:01.318Z,60.1
2019-04-04T15:39:01.160Z,59.1
2019-04-04T15:49:01.175Z,57.6
2019-04-04T15:54:01.141Z,57.8
2019-04-04T15:59:01.122Z,56.9
2019-04-04T16:09:01.279Z,57.0
2019-04-04T16:14:01.221Z,57.1
2019-04-04T16:19:01.144Z,56.8
2019-04-04T16:24:01.152Z,56.9
2019-04-04T16:29:01.121Z,57.0
2019-04-04T16:34:01.156Z,56.8
2019-04-04T16:39:01.127Z,56.3
2019-04-04T16:44:01.229Z,56.1
2019-04-04T16:49:01.151Z,56.5
2019-04-04T16:54:01.272Z,56.1
2019-04-04T16:59:01.157Z,55.7
2019-04-04T17:09:01.152Z,54.6
2019-04-04T17:14:02.315Z,53.7
2019-04-04T17:19:01.169Z,52.2
2019-04-04T17:24:01.211Z,51.4
2019-04-04T17:29:01.193Z,49.0
2019-04-04T17:34:02.157Z,47.9
2019-04-04T17:39:01.118Z,45.4
2019-04-04T17:44:01.215Z,43.7
2019-04-04T17:49:01.128Z,42.1
2019-04-04T17:54:01.396Z,40.5
2019-04-04T17:59:01.138Z,39.0
2019-04-04T18:04:01.326Z,38.1
2019-04-04T18:09:01.164Z,37.2
2019-04-04T18:14:01.243Z,35.1
2019-04-04T18:19:01.116Z,34.0
2019-04-04T18:24:01.201Z,32.2
2019-04-04T18:29:01.163Z,31.0
2019-04-04T18:34:01.223Z,28.8
2019-04-04T18:39:01.145Z,27.7
2019-04-04T18:44:01.287Z,26.5
2019-04-04T18:49:01.152Z,25.6
2019-04-04T18:54:01.448Z,24.5
2019-04-04T18:59:01.192Z,24.4
2019-04-04T19:04:01.227Z,23.9
2019-04-04T19:09:01.143Z,23.8
2019-04-04T19:14:01.245Z,22.3
2019-04-04T19:19:01.184Z,20.6
2019-04-04T19:24:01.278Z,19.4
2019-04-04T19:29:01.159Z,18.3
2019-04-04T19:34:01.326Z,16.9
2019-04-04T19:39:01.189Z,17.1
2019-04-04T19:44:01.354Z,16.8
2019-04-04T19:49:01.189Z,16.0
2019-04-04T19:54:01.189Z,15.7
2019-04-04T19:59:01.210Z,15.5
2019-04-04T20:04:01.241Z,14.9
2019-04-04T20:14:01.191Z,15.1
2019-04-04T20:19:01.142Z,14.6
2019-04-04T20:24:01.289Z,14.1
2019-04-04T20:29:01.158Z,13.6
2019-04-04T20:34:03.209Z,12.6
2019-04-04T20:39:01.112Z,11.8
2019-04-04T20:44:01.259Z,11.6
2019-04-04T20:49:01.156Z,11.4
2019-04-04T20:54:01.219Z,11.3
2019-04-04T20:59:01.152Z,11.7
2019-04-04T21:04:01.285Z,11.2
2019-04-04T21:09:01.154Z,10.4
2019-04-04T21:14:01.225Z,8.8
2019-04-04T21:19:01.182Z,7.3
2019-04-04T21:24:01.202Z,5.6
2019-04-04T21:29:01.148Z,4.6
2019-04-04T21:34:01.248Z,3.8
2019-04-04T21:39:01.137Z,4.0
2019-04-04T21:44:08.496Z,4.4
2019-04-04T21:49:01.162Z,5.0
2019-04-04T21:54:01.309Z,5.5
2019-04-04T21:59:02.119Z,5.6
2019-04-04T22:04:01.289Z,5.8
2019-04-04T22:14:01.160Z,5.5
2019-04-04T22:29:01.283Z,5.5
2019-04-04T22:39:01.253Z,5.9
2019-04-04T22:44:03.506Z,5.8
2019-04-04T22:49:02.363Z,5.4
2019-04-04T22:54:01.243Z,4.8
2019-04-04T22:59:01.174Z,4.2
2019-04-04T23:04:01.282Z,3.5
2019-04-04T23:09:01.195Z,3.2
2019-04-04T23:14:01.188Z,2.9
2019-04-04T23:29:01.290Z,2.8
2019-04-04T23:34:01.236Z,3.0
2019-04-04T23:39:01.154Z,3.2
2019-04-04T23:44:01.209Z,3.7
2019-04-04T23:49:01.685Z,4.2
2019-04-04T23:54:01.187Z,4.3
2019-04-04T23:59:01.184Z,4.2
